sensor_id;sensor_type;location;lat;lon;timestamp;P1;durP1;ratioP1;P2;durP2;ratioP2
67712;SDS011;67640;55.784;49.138;2023-04-09T00:03:13;31.57;;;11.15;;
67712;SDS011;67640;55.784;49.138;2023-04-09T00:08:19;33.25;;;11.08;;
67712;SDS011;67640;55.784;49.138;2023-04-09T00:13:36;31.55;;;11.15;;
67712;SDS011;67640;55.784;49.138;2023-04-09T00:18:41;29.72;;;12.03;;
67712;SDS011;67640;55.784;49.138;2023-04-09T00:23:58;35.38;;;11.20;;
67712;SDS011;67640;55.784;49.138;2023-04-09T00:29:03;34.35;;;11.45;;
67712;SDS011;67640;55.784;49.138;2023-04-09T00:34:23;31.13;;;10.77;;
67712;SDS011;67640;55.784;49.138;2023-04-09T00:39:40;28.02;;;11.15;;
67712;SDS011;67640;55.784;49.138;2023-04-09T00:44:45;36.45;;;11.20;;
67712;SDS011;67640;55.784;49.138;2023-04-09T00:50:04;27.40;;;10.27;;
67712;SDS011;67640;55.784;49.138;2023-04-09T00:55:23;25.05;;;9.98;;
67712;SDS011;67640;55.784;49.138;2023-04-09T01:00:53;28.07;;;10.38;;
67712;SDS011;67640;55.784;49.138;2023-04-09T01:11:40;29.42;;;10.15;;
67712;SDS011;67640;55.784;49.138;2023-04-09T01:33:30;27.85;;;10.08;;
67712;SDS011;67640;55.784;49.138;2023-04-09T01:38:49;32.93;;;11.10;;
67712;SDS011;67640;55.784;49.138;2023-04-09T01:44:17;30.07;;;10.53;;
67712;SDS011;67640;55.784;49.138;2023-04-09T01:49:23;29.55;;;10.32;;
67712;SDS011;67640;55.784;49.138;2023-04-09T01:54:29;28.50;;;9.73;;
67712;SDS011;67640;55.784;49.138;2023-04-09T01:59:34;23.90;;;10.50;;
67712;SDS011;67640;55.784;49.138;2023-04-09T02:04:52;28.23;;;9.70;;
67712;SDS011;67640;55.784;49.138;2023-04-09T02:09:58;25.90;;;9.25;;
67712;SDS011;67640;55.784;49.138;2023-04-09T02:15:18;28.27;;;9.80;;
67712;SDS011;67640;55.784;49.138;2023-04-09T02:20:24;21.87;;;9.23;;
67712;SDS011;67640;55.784;49.138;2023-04-09T02:25:42;21.30;;;8.05;;
67712;SDS011;67640;55.784;49.138;2023-04-09T02:30:48;22.60;;;8.90;;
67712;SDS011;67640;55.784;49.138;2023-04-09T02:36:10;24.02;;;8.03;;
67712;SDS011;67640;55.784;49.138;2023-04-09T02:41:27;26.82;;;8.40;;
67712;SDS011;67640;55.784;49.138;2023-04-09T02:46:32;24.03;;;8.37;;
67712;SDS011;67640;55.784;49.138;2023-04-09T02:51:51;23.55;;;8.13;;
67712;SDS011;67640;55.784;49.138;2023-04-09T02:56:56;22.60;;;8.20;;
67712;SDS011;67640;55.784;49.138;2023-04-09T03:02:01;19.62;;;7.47;;
67712;SDS011;67640;55.784;49.138;2023-04-09T03:07:24;21.68;;;7.25;;
67712;SDS011;67640;55.784;49.138;2023-04-09T03:12:30;25.45;;;7.87;;
67712;SDS011;67640;55.784;49.138;2023-04-09T03:17:36;22.67;;;7.60;;
67712;SDS011;67640;55.784;49.138;2023-04-09T03:22:53;20.55;;;7.70;;
67712;SDS011;67640;55.784;49.138;2023-04-09T03:27:58;17.42;;;7.00;;
67712;SDS011;67640;55.784;49.138;2023-04-09T03:33:04;19.23;;;8.00;;
67712;SDS011;67640;55.784;49.138;2023-04-09T03:38:10;18.98;;;8.03;;
67712;SDS011;67640;55.784;49.138;2023-04-09T03:43:27;18.62;;;7.92;;
67712;SDS011;67640;55.784;49.138;2023-04-09T03:48:32;25.97;;;7.57;;
67712;SDS011;67640;55.784;49.138;2023-04-09T03:53:51;17.37;;;6.83;;
67712;SDS011;67640;55.784;49.138;2023-04-09T03:58:56;24.05;;;7.03;;
67712;SDS011;67640;55.784;49.138;2023-04-09T04:04:19;21.60;;;7.25;;
67712;SDS011;67640;55.784;49.138;2023-04-09T04:09:25;28.65;;;8.08;;
67712;SDS011;67640;55.784;49.138;2023-04-09T04:14:44;19.25;;;7.35;;
67712;SDS011;67640;55.784;49.138;2023-04-09T04:20:03;21.30;;;7.07;;
67712;SDS011;67640;55.784;49.138;2023-04-09T04:25:22;22.42;;;7.30;;
67712;SDS011;67640;55.784;49.138;2023-04-09T04:30:41;20.72;;;7.12;;
67712;SDS011;67640;55.784;49.138;2023-04-09T04:35:46;23.15;;;6.53;;
67712;SDS011;67640;55.784;49.138;2023-04-09T04:40:52;19.98;;;6.12;;
67712;SDS011;67640;55.784;49.138;2023-04-09T04:45:57;17.57;;;6.27;;
67712;SDS011;67640;55.784;49.138;2023-04-09T04:51:16;28.42;;;7.85;;
67712;SDS011;67640;55.784;49.138;2023-04-09T04:56:35;26.95;;;7.42;;
67712;SDS011;67640;55.784;49.138;2023-04-09T05:01:54;22.90;;;6.42;;
67712;SDS011;67640;55.784;49.138;2023-04-09T05:07:02;23.30;;;6.40;;
67712;SDS011;67640;55.784;49.138;2023-04-09T05:12:07;28.77;;;7.73;;
67712;SDS011;67640;55.784;49.138;2023-04-09T05:17:26;20.75;;;7.05;;
67712;SDS011;67640;55.784;49.138;2023-04-09T05:22:45;31.55;;;9.03;;
67712;SDS011;67640;55.784;49.138;2023-04-09T05:28:05;22.03;;;6.93;;
67712;SDS011;67640;55.784;49.138;2023-04-09T05:33:11;25.68;;;8.28;;
67712;SDS011;67640;55.784;49.138;2023-04-09T05:38:16;23.47;;;7.33;;
67712;SDS011;67640;55.784;49.138;2023-04-09T05:43:34;23.57;;;7.80;;
67712;SDS011;67640;55.784;49.138;2023-04-09T05:48:39;22.80;;;7.47;;
67712;SDS011;67640;55.784;49.138;2023-04-09T05:53:54;16.70;;;7.30;;
67712;SDS011;67640;55.784;49.138;2023-04-09T05:59:11;33.43;;;8.20;;
67712;SDS011;67640;55.784;49.138;2023-04-09T06:04:17;28.80;;;8.90;;
67712;SDS011;67640;55.784;49.138;2023-04-09T06:09:36;28.10;;;9.18;;
67712;SDS011;67640;55.784;49.138;2023-04-09T06:14:42;27.50;;;8.63;;
67712;SDS011;67640;55.784;49.138;2023-04-09T06:19:47;27.48;;;8.03;;
67712;SDS011;67640;55.784;49.138;2023-04-09T06:25:07;20.65;;;6.12;;
67712;SDS011;67640;55.784;49.138;2023-04-09T06:30:13;30.48;;;11.43;;
67712;SDS011;67640;55.784;49.138;2023-04-09T06:35:32;19.93;;;6.47;;
67712;SDS011;67640;55.784;49.138;2023-04-09T06:40:51;18.80;;;5.80;;
67712;SDS011;67640;55.784;49.138;2023-04-09T06:46:24;24.63;;;5.87;;
67712;SDS011;67640;55.784;49.138;2023-04-09T06:51:29;22.80;;;6.33;;
67712;SDS011;67640;55.784;49.138;2023-04-09T06:56:35;25.68;;;6.47;;
67712;SDS011;67640;55.784;49.138;2023-04-09T07:01:57;42.05;;;6.03;;
67712;SDS011;67640;55.784;49.138;2023-04-09T07:07:02;20.27;;;5.40;;
67712;SDS011;67640;55.784;49.138;2023-04-09T07:12:07;15.15;;;5.15;;
67712;SDS011;67640;55.784;49.138;2023-04-09T07:17:15;22.50;;;5.25;;
67712;SDS011;67640;55.784;49.138;2023-04-09T07:22:36;15.03;;;4.33;;
67712;SDS011;67640;55.784;49.138;2023-04-09T07:28:00;16.23;;;5.10;;
67712;SDS011;67640;55.784;49.138;2023-04-09T07:33:19;14.83;;;5.10;;
67712;SDS011;67640;55.784;49.138;2023-04-09T07:38:38;14.28;;;4.72;;
67712;SDS011;67640;55.784;49.138;2023-04-09T07:43:57;9.90;;;3.72;;
67712;SDS011;67640;55.784;49.138;2023-04-09T07:49:03;17.33;;;3.67;;
67712;SDS011;67640;55.784;49.138;2023-04-09T07:54:09;18.32;;;4.20;;
67712;SDS011;67640;55.784;49.138;2023-04-09T07:59:28;61.57;;;5.30;;
67712;SDS011;67640;55.784;49.138;2023-04-09T08:04:33;13.90;;;3.45;;
67712;SDS011;67640;55.784;49.138;2023-04-09T08:09:52;9.75;;;3.35;;
67712;SDS011;67640;55.784;49.138;2023-04-09T08:14:57;12.30;;;3.40;;
67712;SDS011;67640;55.784;49.138;2023-04-09T08:20:16;29.85;;;4.22;;
67712;SDS011;67640;55.784;49.138;2023-04-09T08:25:35;10.27;;;3.93;;
67712;SDS011;67640;55.784;49.138;2023-04-09T08:30:40;14.38;;;4.45;;
67712;SDS011;67640;55.784;49.138;2023-04-09T08:35:46;14.15;;;4.20;;
67712;SDS011;67640;55.784;49.138;2023-04-09T08:40:51;11.43;;;3.27;;
67712;SDS011;67640;55.784;49.138;2023-04-09T08:46:11;9.25;;;3.70;;
67712;SDS011;67640;55.784;49.138;2023-04-09T08:51:31;9.30;;;3.90;;
67712;SDS011;67640;55.784;49.138;2023-04-09T08:56:37;12.83;;;3.63;;
67712;SDS011;67640;55.784;49.138;2023-04-09T09:01:42;12.43;;;4.60;;
67712;SDS011;67640;55.784;49.138;2023-04-09T09:07:04;9.13;;;3.02;;
67712;SDS011;67640;55.784;49.138;2023-04-09T09:12:09;14.60;;;4.07;;
67712;SDS011;67640;55.784;49.138;2023-04-09T09:17:14;11.55;;;3.98;;
67712;SDS011;67640;55.784;49.138;2023-04-09T09:22:47;12.90;;;4.08;;
67712;SDS011;67640;55.784;49.138;2023-04-09T09:27:40;17.87;;;4.73;;
67712;SDS011;67640;55.784;49.138;2023-04-09T09:38:23;15.88;;;3.98;;
67712;SDS011;67640;55.784;49.138;2023-04-09T09:43:42;11.93;;;3.85;;
67712;SDS011;67640;55.784;49.138;2023-04-09T09:48:47;14.10;;;4.07;;
67712;SDS011;67640;55.784;49.138;2023-04-09T09:54:07;15.00;;;4.60;;
67712;SDS011;67640;55.784;49.138;2023-04-09T09:59:31;21.53;;;4.63;;
67712;SDS011;67640;55.784;49.138;2023-04-09T10:05:02;16.27;;;4.67;;
67712;SDS011;67640;55.784;49.138;2023-04-09T10:10:09;19.05;;;4.67;;
67712;SDS011;67640;55.784;49.138;2023-04-09T10:15:17;11.43;;;4.40;;
67712;SDS011;67640;55.784;49.138;2023-04-09T10:20:45;10.53;;;4.90;;
67712;SDS011;67640;55.784;49.138;2023-04-09T10:25:49;16.75;;;4.80;;
67712;SDS011;67640;55.784;49.138;2023-04-09T10:30:55;13.28;;;4.92;;
67712;SDS011;67640;55.784;49.138;2023-04-09T10:41:44;13.30;;;4.20;;
67712;SDS011;67640;55.784;49.138;2023-04-09T10:52:17;14.50;;;4.73;;
67712;SDS011;67640;55.784;49.138;2023-04-09T10:57:35;13.30;;;5.10;;
67712;SDS011;67640;55.784;49.138;2023-04-09T11:08:20;12.20;;;4.57;;
67712;SDS011;67640;55.784;49.138;2023-04-09T11:13:39;18.37;;;5.33;;
67712;SDS011;67640;55.784;49.138;2023-04-09T11:19:09;16.62;;;4.47;;
67712;SDS011;67640;55.784;49.138;2023-04-09T11:24:14;13.93;;;4.57;;
67712;SDS011;67640;55.784;49.138;2023-04-09T11:29:34;16.32;;;4.97;;
67712;SDS011;67640;55.784;49.138;2023-04-09T11:34:55;16.70;;;4.80;;
67712;SDS011;67640;55.784;49.138;2023-04-09T11:40:00;40.70;;;5.40;;
67712;SDS011;67640;55.784;49.138;2023-04-09T11:45:08;16.73;;;5.17;;
67712;SDS011;67640;55.784;49.138;2023-04-09T11:50:31;17.05;;;5.00;;
67712;SDS011;67640;55.784;49.138;2023-04-09T11:55:36;15.88;;;5.03;;
67712;SDS011;67640;55.784;49.138;2023-04-09T12:01:01;12.20;;;4.75;;
67712;SDS011;67640;55.784;49.138;2023-04-09T12:06:06;13.67;;;5.17;;
67712;SDS011;67640;55.784;49.138;2023-04-09T12:11:26;23.85;;;5.37;;
67712;SDS011;67640;55.784;49.138;2023-04-09T12:16:49;15.10;;;5.33;;
67712;SDS011;67640;55.784;49.138;2023-04-09T12:22:06;21.05;;;5.80;;
67712;SDS011;67640;55.784;49.138;2023-04-09T12:27:11;13.53;;;5.40;;
67712;SDS011;67640;55.784;49.138;2023-04-09T12:32:29;12.93;;;5.30;;
67712;SDS011;67640;55.784;49.138;2023-04-09T12:37:35;13.22;;;5.30;;
67712;SDS011;67640;55.784;49.138;2023-04-09T12:48:18;18.37;;;5.97;;
67712;SDS011;67640;55.784;49.138;2023-04-09T12:53:43;122.40;;;9.17;;
67712;SDS011;67640;55.784;49.138;2023-04-09T12:58:49;17.07;;;5.00;;
67712;SDS011;67640;55.784;49.138;2023-04-09T13:04:14;15.57;;;5.33;;
67712;SDS011;67640;55.784;49.138;2023-04-09T13:09:36;15.80;;;5.43;;
67712;SDS011;67640;55.784;49.138;2023-04-09T13:14:43;12.28;;;5.33;;
67712;SDS011;67640;55.784;49.138;2023-04-09T13:20:03;15.18;;;5.05;;
67712;SDS011;67640;55.784;49.138;2023-04-09T13:25:29;15.30;;;4.80;;
67712;SDS011;67640;55.784;49.138;2023-04-09T13:30:46;20.40;;;5.00;;
67712;SDS011;67640;55.784;49.138;2023-04-09T13:35:53;21.97;;;5.75;;
67712;SDS011;67640;55.784;49.138;2023-04-09T13:41:12;13.60;;;5.50;;
67712;SDS011;67640;55.784;49.138;2023-04-09T13:46:38;12.17;;;5.40;;
67712;SDS011;67640;55.784;49.138;2023-04-09T13:52:17;18.95;;;6.55;;
67712;SDS011;67640;55.784;49.138;2023-04-09T13:57:57;20.43;;;5.60;;
67712;SDS011;67640;55.784;49.138;2023-04-09T14:03:16;11.87;;;5.07;;
67712;SDS011;67640;55.784;49.138;2023-04-09T14:08:41;16.55;;;5.50;;
67712;SDS011;67640;55.784;49.138;2023-04-09T14:13:47;15.93;;;5.58;;
67712;SDS011;67640;55.784;49.138;2023-04-09T14:19:06;14.00;;;5.33;;
67712;SDS011;67640;55.784;49.138;2023-04-09T14:24:12;13.98;;;5.12;;
67712;SDS011;67640;55.784;49.138;2023-04-09T14:29:29;21.73;;;5.90;;
67712;SDS011;67640;55.784;49.138;2023-04-09T14:34:35;28.30;;;12.33;;
67712;SDS011;67640;55.784;49.138;2023-04-09T14:39:41;14.43;;;5.10;;
67712;SDS011;67640;55.784;49.138;2023-04-09T14:45:23;13.03;;;4.60;;
67712;SDS011;67640;55.784;49.138;2023-04-09T14:50:42;12.40;;;5.10;;
67712;SDS011;67640;55.784;49.138;2023-04-09T14:55:47;10.93;;;4.60;;
67712;SDS011;67640;55.784;49.138;2023-04-09T15:00:52;13.53;;;5.30;;
67712;SDS011;67640;55.784;49.138;2023-04-09T15:05:56;12.33;;;4.27;;
67712;SDS011;67640;55.784;49.138;2023-04-09T15:11:15;13.33;;;4.53;;
67712;SDS011;67640;55.784;49.138;2023-04-09T15:16:21;19.23;;;5.80;;
67712;SDS011;67640;55.784;49.138;2023-04-09T15:21:32;17.37;;;4.77;;
67712;SDS011;67640;55.784;49.138;2023-04-09T15:26:38;23.05;;;5.25;;
67712;SDS011;67640;55.784;49.138;2023-04-09T15:32:06;17.95;;;4.75;;
67712;SDS011;67640;55.784;49.138;2023-04-09T15:37:11;16.17;;;5.00;;
67712;SDS011;67640;55.784;49.138;2023-04-09T15:42:30;21.75;;;6.00;;
67712;SDS011;67640;55.784;49.138;2023-04-09T15:47:51;15.93;;;5.53;;
67712;SDS011;67640;55.784;49.138;2023-04-09T15:53:14;19.32;;;6.70;;
67712;SDS011;67640;55.784;49.138;2023-04-09T15:58:19;21.87;;;7.60;;
67712;SDS011;67640;55.784;49.138;2023-04-09T16:03:25;23.47;;;7.45;;
67712;SDS011;67640;55.784;49.138;2023-04-09T16:08:43;26.25;;;8.88;;
67712;SDS011;67640;55.784;49.138;2023-04-09T16:13:48;31.20;;;10.77;;
67712;SDS011;67640;55.784;49.138;2023-04-09T16:19:14;35.67;;;11.57;;
67712;SDS011;67640;55.784;49.138;2023-04-09T16:24:20;33.28;;;12.35;;
67712;SDS011;67640;55.784;49.138;2023-04-09T16:29:39;34.00;;;12.40;;
67712;SDS011;67640;55.784;49.138;2023-04-09T16:34:48;38.53;;;13.00;;
67712;SDS011;67640;55.784;49.138;2023-04-09T16:39:54;33.48;;;12.65;;
67712;SDS011;67640;55.784;49.138;2023-04-09T16:45:13;37.27;;;11.60;;
67712;SDS011;67640;55.784;49.138;2023-04-09T16:50:19;35.50;;;11.57;;
67712;SDS011;67640;55.784;49.138;2023-04-09T16:55:38;30.75;;;11.78;;
67712;SDS011;67640;55.784;49.138;2023-04-09T17:00:43;35.23;;;11.83;;
67712;SDS011;67640;55.784;49.138;2023-04-09T17:06:02;39.60;;;11.75;;
67712;SDS011;67640;55.784;49.138;2023-04-09T17:11:31;48.78;;;12.43;;
67712;SDS011;67640;55.784;49.138;2023-04-09T17:16:36;54.27;;;14.20;;
67712;SDS011;67640;55.784;49.138;2023-04-09T17:21:41;44.10;;;13.60;;
67712;SDS011;67640;55.784;49.138;2023-04-09T17:27:04;40.33;;;12.95;;
67712;SDS011;67640;55.784;49.138;2023-04-09T17:32:24;31.03;;;10.20;;
67712;SDS011;67640;55.784;49.138;2023-04-09T17:37:28;36.48;;;11.18;;
67712;SDS011;67640;55.784;49.138;2023-04-09T17:42:34;51.55;;;11.30;;
67712;SDS011;67640;55.784;49.138;2023-04-09T17:47:53;35.33;;;10.07;;
67712;SDS011;67640;55.784;49.138;2023-04-09T17:58:32;34.23;;;9.80;;
67712;SDS011;67640;55.784;49.138;2023-04-09T18:03:38;67.00;;;10.83;;
67712;SDS011;67640;55.784;49.138;2023-04-09T18:08:44;71.33;;;11.73;;
67712;SDS011;67640;55.784;49.138;2023-04-09T18:14:01;60.17;;;10.75;;
67712;SDS011;67640;55.784;49.138;2023-04-09T18:19:06;43.73;;;10.70;;
67712;SDS011;67640;55.784;49.138;2023-04-09T18:24:24;44.47;;;11.23;;
67712;SDS011;67640;55.784;49.138;2023-04-09T18:29:30;36.70;;;12.18;;
67712;SDS011;67640;55.784;49.138;2023-04-09T18:34:36;43.92;;;10.88;;
67712;SDS011;67640;55.784;49.138;2023-04-09T18:39:54;52.00;;;13.10;;
67712;SDS011;67640;55.784;49.138;2023-04-09T18:44:59;35.85;;;10.58;;
67712;SDS011;67640;55.784;49.138;2023-04-09T18:50:05;37.20;;;10.53;;
67712;SDS011;67640;55.784;49.138;2023-04-09T18:55:25;46.93;;;11.40;;
67712;SDS011;67640;55.784;49.138;2023-04-09T19:00:38;55.58;;;11.85;;
67712;SDS011;67640;55.784;49.138;2023-04-09T19:05:55;41.15;;;11.20;;
67712;SDS011;67640;55.784;49.138;2023-04-09T19:11:00;48.47;;;10.27;;
67712;SDS011;67640;55.784;49.138;2023-04-09T19:16:07;40.90;;;10.63;;
67712;SDS011;67640;55.784;49.138;2023-04-09T19:21:27;47.83;;;11.00;;
67712;SDS011;67640;55.784;49.138;2023-04-09T19:26:37;50.17;;;12.37;;
67712;SDS011;67640;55.784;49.138;2023-04-09T19:31:57;40.45;;;10.55;;
67712;SDS011;67640;55.784;49.138;2023-04-09T19:37:03;46.73;;;11.57;;
67712;SDS011;67640;55.784;49.138;2023-04-09T19:42:37;66.42;;;13.93;;
67712;SDS011;67640;55.784;49.138;2023-04-09T19:47:42;45.97;;;13.43;;
67712;SDS011;67640;55.784;49.138;2023-04-09T19:52:48;50.10;;;14.95;;
67712;SDS011;67640;55.784;49.138;2023-04-09T19:58:06;49.08;;;14.85;;
67712;SDS011;67640;55.784;49.138;2023-04-09T20:03:12;52.80;;;15.80;;
67712;SDS011;67640;55.784;49.138;2023-04-09T20:08:17;60.73;;;17.67;;
67712;SDS011;67640;55.784;49.138;2023-04-09T20:13:48;43.80;;;12.50;;
67712;SDS011;67640;55.784;49.138;2023-04-09T20:24:30;43.37;;;12.47;;
67712;SDS011;67640;55.784;49.138;2023-04-09T20:29:49;46.13;;;12.43;;
67712;SDS011;67640;55.784;49.138;2023-04-09T20:35:08;45.10;;;11.63;;
67712;SDS011;67640;55.784;49.138;2023-04-09T20:40:14;41.58;;;11.97;;
67712;SDS011;67640;55.784;49.138;2023-04-09T20:45:32;35.58;;;11.35;;
67712;SDS011;67640;55.784;49.138;2023-04-09T20:50:37;48.40;;;13.62;;
67712;SDS011;67640;55.784;49.138;2023-04-09T20:55:44;42.57;;;11.83;;
67712;SDS011;67640;55.784;49.138;2023-04-09T21:01:07;40.30;;;11.83;;
67712;SDS011;67640;55.784;49.138;2023-04-09T21:06:12;34.75;;;11.20;;
67712;SDS011;67640;55.784;49.138;2023-04-09T21:11:29;41.58;;;11.80;;
67712;SDS011;67640;55.784;49.138;2023-04-09T21:16:35;30.00;;;10.53;;
67712;SDS011;67640;55.784;49.138;2023-04-09T21:21:54;35.63;;;10.82;;
67712;SDS011;67640;55.784;49.138;2023-04-09T21:27:13;31.87;;;10.10;;
67712;SDS011;67640;55.784;49.138;2023-04-09T21:32:32;41.00;;;10.23;;
67712;SDS011;67640;55.784;49.138;2023-04-09T21:37:51;35.08;;;10.68;;
67712;SDS011;67640;55.784;49.138;2023-04-09T21:42:56;30.65;;;10.13;;
67712;SDS011;67640;55.784;49.138;2023-04-09T21:48:02;30.48;;;10.28;;
67712;SDS011;67640;55.784;49.138;2023-04-09T21:53:07;34.00;;;9.90;;
67712;SDS011;67640;55.784;49.138;2023-04-09T21:58:30;43.20;;;10.90;;
67712;SDS011;67640;55.784;49.138;2023-04-09T22:03:35;34.30;;;10.38;;
67712;SDS011;67640;55.784;49.138;2023-04-09T22:08:41;32.10;;;10.23;;
67712;SDS011;67640;55.784;49.138;2023-04-09T22:14:00;38.90;;;11.48;;
67712;SDS011;67640;55.784;49.138;2023-04-09T22:19:17;33.70;;;10.25;;
67712;SDS011;67640;55.784;49.138;2023-04-09T22:24:23;36.13;;;10.45;;
67712;SDS011;67640;55.784;49.138;2023-04-09T22:29:42;29.90;;;10.53;;
67712;SDS011;67640;55.784;49.138;2023-04-09T22:35:01;35.83;;;10.88;;
67712;SDS011;67640;55.784;49.138;2023-04-09T22:40:22;32.07;;;11.07;;
67712;SDS011;67640;55.784;49.138;2023-04-09T22:45:43;31.73;;;10.40;;
67712;SDS011;67640;55.784;49.138;2023-04-09T22:50:48;31.80;;;10.53;;
67712;SDS011;67640;55.784;49.138;2023-04-09T22:56:25;36.43;;;9.93;;
67712;SDS011;67640;55.784;49.138;2023-04-09T23:01:31;40.20;;;11.73;;
67712;SDS011;67640;55.784;49.138;2023-04-09T23:06:36;32.28;;;11.15;;
67712;SDS011;67640;55.784;49.138;2023-04-09T23:12:05;26.35;;;9.75;;
67712;SDS011;67640;55.784;49.138;2023-04-09T23:17:10;35.52;;;9.93;;
67712;SDS011;67640;55.784;49.138;2023-04-09T23:22:17;32.85;;;9.78;;
67712;SDS011;67640;55.784;49.138;2023-04-09T23:27:35;34.13;;;9.95;;
67712;SDS011;67640;55.784;49.138;2023-04-09T23:32:41;31.83;;;9.70;;
67712;SDS011;67640;55.784;49.138;2023-04-09T23:37:47;30.50;;;10.70;;
67712;SDS011;67640;55.784;49.138;2023-04-09T23:43:06;25.33;;;9.90;;
67712;SDS011;67640;55.784;49.138;2023-04-09T23:48:38;29.83;;;9.40;;
67712;SDS011;67640;55.784;49.138;2023-04-09T23:53:44;31.57;;;10.08;;
67712;SDS011;67640;55.784;49.138;2023-04-09T23:59:07;30.45;;;10.15;;
